Terminal Aerodrome Forecast
Issued by NWS

Home | Current Version | Previous Version | Text Only | Print | Product List | Glossary On
Versions: 1 2 3 4 5 6 7 8 9 10 11 12 13 14 15 16
000
FTUS43 KJKL 220300 AAA
TAFSME
TAF AMD
KSME 220323Z 2203/2224 VRB03KT P6SM SKC
     FM220800 VRB03KT P6SM BKN025
     FM221000 VRB03KT P6SM BKN010
     FM221600 VRB03KT P6SM SCT015 SCT035
     FM221900 VRB04KT P6SM FEW045=

USA.gov is the U.S. government's official web portal to all federal, state and local government web resources and services.